sensor_id;sensor_type;location;lat;lon;timestamp;P1;durP1;ratioP1;P2;durP2;ratioP2
50976;SDS011;36992;48.200;12.418;2023-10-19T00:01:22;8.48;;;5.70;;
50976;SDS011;36992;48.200;12.418;2023-10-19T00:03:49;7.80;;;5.43;;
50976;SDS011;36992;48.200;12.418;2023-10-19T00:06:14;7.30;;;5.00;;
50976;SDS011;36992;48.200;12.418;2023-10-19T00:08:43;8.32;;;5.88;;
50976;SDS011;36992;48.200;12.418;2023-10-19T00:11:09;5.90;;;3.97;;
50976;SDS011;36992;48.200;12.418;2023-10-19T00:13:46;7.53;;;4.90;;
50976;SDS011;36992;48.200;12.418;2023-10-19T00:16:14;8.35;;;5.43;;
50976;SDS011;36992;48.200;12.418;2023-10-19T00:18:44;7.55;;;4.80;;
50976;SDS011;36992;48.200;12.418;2023-10-19T00:21:10;6.35;;;4.63;;
50976;SDS011;36992;48.200;12.418;2023-10-19T00:23:44;7.95;;;4.82;;
50976;SDS011;36992;48.200;12.418;2023-10-19T00:26:12;6.15;;;4.65;;
50976;SDS011;36992;48.200;12.418;2023-10-19T00:28:42;7.47;;;4.47;;
50976;SDS011;36992;48.200;12.418;2023-10-19T00:31:10;7.13;;;4.75;;
50976;SDS011;36992;48.200;12.418;2023-10-19T00:33:38;6.90;;;5.05;;
50976;SDS011;36992;48.200;12.418;2023-10-19T00:36:07;7.28;;;4.55;;
50976;SDS011;36992;48.200;12.418;2023-10-19T00:38:38;6.97;;;5.20;;
50976;SDS011;36992;48.200;12.418;2023-10-19T00:41:07;6.85;;;4.55;;
50976;SDS011;36992;48.200;12.418;2023-10-19T00:43:39;8.60;;;5.72;;
50976;SDS011;36992;48.200;12.418;2023-10-19T00:46:09;9.13;;;5.25;;
50976;SDS011;36992;48.200;12.418;2023-10-19T00:48:40;9.45;;;5.97;;
50976;SDS011;36992;48.200;12.418;2023-10-19T00:51:13;8.63;;;5.22;;
50976;SDS011;36992;48.200;12.418;2023-10-19T00:53:52;8.13;;;4.88;;
50976;SDS011;36992;48.200;12.418;2023-10-19T00:56:20;6.65;;;4.60;;
50976;SDS011;36992;48.200;12.418;2023-10-19T00:58:51;6.85;;;4.53;;
50976;SDS011;36992;48.200;12.418;2023-10-19T01:01:21;7.95;;;5.22;;
50976;SDS011;36992;48.200;12.418;2023-10-19T01:03:53;8.40;;;5.50;;
50976;SDS011;36992;48.200;12.418;2023-10-19T01:06:22;7.72;;;5.65;;
50976;SDS011;36992;48.200;12.418;2023-10-19T01:08:50;7.03;;;5.22;;
50976;SDS011;36992;48.200;12.418;2023-10-19T01:11:17;8.07;;;5.32;;
50976;SDS011;36992;48.200;12.418;2023-10-19T01:13:46;10.20;;;6.22;;
50976;SDS011;36992;48.200;12.418;2023-10-19T01:16:13;7.47;;;4.97;;
50976;SDS011;36992;48.200;12.418;2023-10-19T01:18:46;9.65;;;5.53;;
50976;SDS011;36992;48.200;12.418;2023-10-19T01:21:13;5.22;;;4.30;;
50976;SDS011;36992;48.200;12.418;2023-10-19T01:23:45;8.45;;;5.53;;
50976;SDS011;36992;48.200;12.418;2023-10-19T01:26:13;7.05;;;4.82;;
50976;SDS011;36992;48.200;12.418;2023-10-19T01:28:43;9.38;;;6.05;;
50976;SDS011;36992;48.200;12.418;2023-10-19T01:31:13;9.10;;;6.22;;
50976;SDS011;36992;48.200;12.418;2023-10-19T01:33:41;9.30;;;6.00;;
50976;SDS011;36992;48.200;12.418;2023-10-19T01:36:09;6.50;;;4.65;;
50976;SDS011;36992;48.200;12.418;2023-10-19T01:38:50;7.70;;;5.43;;
50976;SDS011;36992;48.200;12.418;2023-10-19T01:41:18;8.40;;;4.80;;
50976;SDS011;36992;48.200;12.418;2023-10-19T01:43:46;9.70;;;5.57;;
50976;SDS011;36992;48.200;12.418;2023-10-19T01:46:13;6.28;;;4.65;;
50976;SDS011;36992;48.200;12.418;2023-10-19T01:48:47;8.50;;;5.05;;
50976;SDS011;36992;48.200;12.418;2023-10-19T01:51:15;8.60;;;5.63;;
50976;SDS011;36992;48.200;12.418;2023-10-19T01:53:42;7.07;;;5.50;;
50976;SDS011;36992;48.200;12.418;2023-10-19T01:56:11;6.57;;;4.50;;
50976;SDS011;36992;48.200;12.418;2023-10-19T01:58:38;7.82;;;4.93;;
50976;SDS011;36992;48.200;12.418;2023-10-19T02:01:04;7.95;;;5.38;;
50976;SDS011;36992;48.200;12.418;2023-10-19T02:03:40;7.50;;;5.43;;
50976;SDS011;36992;48.200;12.418;2023-10-19T02:06:07;7.13;;;5.47;;
50976;SDS011;36992;48.200;12.418;2023-10-19T02:08:42;8.25;;;5.40;;
50976;SDS011;36992;48.200;12.418;2023-10-19T02:11:11;8.23;;;6.00;;
50976;SDS011;36992;48.200;12.418;2023-10-19T02:13:42;10.45;;;6.20;;
50976;SDS011;36992;48.200;12.418;2023-10-19T02:16:10;7.93;;;5.53;;
50976;SDS011;36992;48.200;12.418;2023-10-19T02:18:36;6.18;;;4.53;;
50976;SDS011;36992;48.200;12.418;2023-10-19T02:21:03;9.18;;;5.88;;
50976;SDS011;36992;48.200;12.418;2023-10-19T02:23:30;7.97;;;5.60;;
50976;SDS011;36992;48.200;12.418;2023-10-19T02:25:58;7.88;;;4.93;;
50976;SDS011;36992;48.200;12.418;2023-10-19T02:28:25;11.15;;;6.60;;
50976;SDS011;36992;48.200;12.418;2023-10-19T02:30:56;8.45;;;6.40;;
50976;SDS011;36992;48.200;12.418;2023-10-19T02:33:22;9.70;;;6.25;;
50976;SDS011;36992;48.200;12.418;2023-10-19T02:35:51;9.35;;;6.22;;
50976;SDS011;36992;48.200;12.418;2023-10-19T02:38:17;7.50;;;4.57;;
50976;SDS011;36992;48.200;12.418;2023-10-19T02:40:43;7.97;;;5.43;;
50976;SDS011;36992;48.200;12.418;2023-10-19T02:43:11;8.93;;;6.10;;
50976;SDS011;36992;48.200;12.418;2023-10-19T02:45:38;11.38;;;6.53;;
50976;SDS011;36992;48.200;12.418;2023-10-19T02:48:05;8.85;;;5.90;;
50976;SDS011;36992;48.200;12.418;2023-10-19T02:50:36;7.35;;;5.47;;
50976;SDS011;36992;48.200;12.418;2023-10-19T02:53:03;8.90;;;5.80;;
50976;SDS011;36992;48.200;12.418;2023-10-19T02:55:29;8.15;;;5.70;;
50976;SDS011;36992;48.200;12.418;2023-10-19T02:57:57;10.73;;;6.50;;
50976;SDS011;36992;48.200;12.418;2023-10-19T03:00:24;7.35;;;5.60;;
50976;SDS011;36992;48.200;12.418;2023-10-19T03:02:59;7.80;;;6.13;;
50976;SDS011;36992;48.200;12.418;2023-10-19T03:05:25;6.40;;;4.85;;
50976;SDS011;36992;48.200;12.418;2023-10-19T03:07:51;8.75;;;6.25;;
50976;SDS011;36992;48.200;12.418;2023-10-19T03:10:17;9.75;;;7.68;;
50976;SDS011;36992;48.200;12.418;2023-10-19T03:12:49;7.47;;;5.45;;
50976;SDS011;36992;48.200;12.418;2023-10-19T03:15:15;9.32;;;6.32;;
50976;SDS011;36992;48.200;12.418;2023-10-19T03:17:44;9.70;;;7.18;;
50976;SDS011;36992;48.200;12.418;2023-10-19T03:20:11;7.88;;;5.07;;
50976;SDS011;36992;48.200;12.418;2023-10-19T03:22:41;8.15;;;5.95;;
50976;SDS011;36992;48.200;12.418;2023-10-19T03:25:08;6.43;;;4.90;;
50976;SDS011;36992;48.200;12.418;2023-10-19T03:28:00;7.70;;;5.50;;
50976;SDS011;36992;48.200;12.418;2023-10-19T03:30:32;7.82;;;5.18;;
50976;SDS011;36992;48.200;12.418;2023-10-19T03:33:05;7.18;;;5.70;;
50976;SDS011;36992;48.200;12.418;2023-10-19T03:35:35;7.20;;;4.97;;
50976;SDS011;36992;48.200;12.418;2023-10-19T03:38:02;8.02;;;6.13;;
50976;SDS011;36992;48.200;12.418;2023-10-19T03:40:33;8.52;;;5.93;;
50976;SDS011;36992;48.200;12.418;2023-10-19T03:43:03;7.00;;;5.15;;
50976;SDS011;36992;48.200;12.418;2023-10-19T03:45:41;7.55;;;5.55;;
50976;SDS011;36992;48.200;12.418;2023-10-19T03:48:15;6.93;;;4.53;;
50976;SDS011;36992;48.200;12.418;2023-10-19T03:50:44;9.68;;;7.07;;
50976;SDS011;36992;48.200;12.418;2023-10-19T03:53:10;7.95;;;5.75;;
50976;SDS011;36992;48.200;12.418;2023-10-19T03:55:38;8.68;;;5.65;;
50976;SDS011;36992;48.200;12.418;2023-10-19T03:58:08;9.27;;;6.30;;
50976;SDS011;36992;48.200;12.418;2023-10-19T04:00:37;9.95;;;6.63;;
50976;SDS011;36992;48.200;12.418;2023-10-19T04:03:03;9.45;;;5.80;;
50976;SDS011;36992;48.200;12.418;2023-10-19T04:05:30;9.75;;;7.45;;
50976;SDS011;36992;48.200;12.418;2023-10-19T04:08:01;9.18;;;5.93;;
50976;SDS011;36992;48.200;12.418;2023-10-19T04:10:38;7.97;;;5.90;;
50976;SDS011;36992;48.200;12.418;2023-10-19T04:13:09;7.57;;;5.75;;
50976;SDS011;36992;48.200;12.418;2023-10-19T04:15:36;7.55;;;5.10;;
50976;SDS011;36992;48.200;12.418;2023-10-19T04:18:03;7.38;;;5.35;;
50976;SDS011;36992;48.200;12.418;2023-10-19T04:20:35;8.70;;;6.32;;
50976;SDS011;36992;48.200;12.418;2023-10-19T04:23:21;7.38;;;5.60;;
50976;SDS011;36992;48.200;12.418;2023-10-19T04:25:51;10.65;;;6.20;;
50976;SDS011;36992;48.200;12.418;2023-10-19T04:28:18;8.27;;;5.57;;
50976;SDS011;36992;48.200;12.418;2023-10-19T04:30:55;9.02;;;6.25;;
50976;SDS011;36992;48.200;12.418;2023-10-19T04:33:21;7.25;;;5.43;;
50976;SDS011;36992;48.200;12.418;2023-10-19T04:35:52;9.50;;;5.82;;
50976;SDS011;36992;48.200;12.418;2023-10-19T04:38:22;7.63;;;5.53;;
50976;SDS011;36992;48.200;12.418;2023-10-19T04:40:49;8.52;;;4.93;;
50976;SDS011;36992;48.200;12.418;2023-10-19T04:43:16;7.93;;;5.07;;
50976;SDS011;36992;48.200;12.418;2023-10-19T04:45:42;7.80;;;4.88;;
50976;SDS011;36992;48.200;12.418;2023-10-19T04:48:10;7.15;;;5.32;;
50976;SDS011;36992;48.200;12.418;2023-10-19T04:50:36;8.85;;;4.70;;
50976;SDS011;36992;48.200;12.418;2023-10-19T04:53:04;7.90;;;5.53;;
50976;SDS011;36992;48.200;12.418;2023-10-19T04:55:32;7.07;;;4.68;;
50976;SDS011;36992;48.200;12.418;2023-10-19T04:57:59;6.72;;;4.80;;
50976;SDS011;36992;48.200;12.418;2023-10-19T05:00:25;7.65;;;5.28;;
50976;SDS011;36992;48.200;12.418;2023-10-19T05:02:53;7.85;;;5.20;;
50976;SDS011;36992;48.200;12.418;2023-10-19T05:05:20;8.05;;;5.60;;
50976;SDS011;36992;48.200;12.418;2023-10-19T05:07:46;7.47;;;5.97;;
50976;SDS011;36992;48.200;12.418;2023-10-19T05:10:13;10.68;;;6.75;;
50976;SDS011;36992;48.200;12.418;2023-10-19T05:12:41;9.13;;;5.53;;
50976;SDS011;36992;48.200;12.418;2023-10-19T05:15:08;7.18;;;5.25;;
50976;SDS011;36992;48.200;12.418;2023-10-19T05:17:35;6.38;;;4.13;;
50976;SDS011;36992;48.200;12.418;2023-10-19T05:20:01;7.57;;;4.57;;
50976;SDS011;36992;48.200;12.418;2023-10-19T05:22:30;6.50;;;4.82;;
50976;SDS011;36992;48.200;12.418;2023-10-19T05:24:57;9.05;;;6.03;;
50976;SDS011;36992;48.200;12.418;2023-10-19T05:27:24;5.78;;;4.32;;
50976;SDS011;36992;48.200;12.418;2023-10-19T05:29:52;5.85;;;3.78;;
50976;SDS011;36992;48.200;12.418;2023-10-19T05:32:18;6.22;;;4.78;;
50976;SDS011;36992;48.200;12.418;2023-10-19T05:34:46;7.63;;;6.00;;
50976;SDS011;36992;48.200;12.418;2023-10-19T05:37:12;8.93;;;5.57;;
50976;SDS011;36992;48.200;12.418;2023-10-19T05:39:39;8.85;;;6.00;;
50976;SDS011;36992;48.200;12.418;2023-10-19T05:42:05;8.35;;;4.88;;
50976;SDS011;36992;48.200;12.418;2023-10-19T05:44:32;9.55;;;6.28;;
50976;SDS011;36992;48.200;12.418;2023-10-19T05:47:00;8.68;;;6.00;;
50976;SDS011;36992;48.200;12.418;2023-10-19T05:49:27;7.85;;;5.75;;
50976;SDS011;36992;48.200;12.418;2023-10-19T05:51:54;8.35;;;5.35;;
50976;SDS011;36992;48.200;12.418;2023-10-19T05:54:20;6.90;;;4.68;;
50976;SDS011;36992;48.200;12.418;2023-10-19T05:56:48;6.32;;;4.55;;
50976;SDS011;36992;48.200;12.418;2023-10-19T05:59:15;6.18;;;4.15;;
50976;SDS011;36992;48.200;12.418;2023-10-19T06:01:41;6.05;;;3.95;;
50976;SDS011;36992;48.200;12.418;2023-10-19T06:04:12;7.85;;;5.82;;
50976;SDS011;36992;48.200;12.418;2023-10-19T06:06:39;9.32;;;6.22;;
50976;SDS011;36992;48.200;12.418;2023-10-19T06:09:06;7.30;;;5.25;;
50976;SDS011;36992;48.200;12.418;2023-10-19T06:11:34;8.20;;;6.28;;
50976;SDS011;36992;48.200;12.418;2023-10-19T06:14:03;7.95;;;6.05;;
50976;SDS011;36992;48.200;12.418;2023-10-19T06:16:32;7.15;;;4.80;;
50976;SDS011;36992;48.200;12.418;2023-10-19T06:18:58;9.43;;;6.30;;
50976;SDS011;36992;48.200;12.418;2023-10-19T06:21:26;6.03;;;4.68;;
50976;SDS011;36992;48.200;12.418;2023-10-19T06:23:53;6.97;;;5.47;;
50976;SDS011;36992;48.200;12.418;2023-10-19T06:26:20;7.10;;;5.45;;
50976;SDS011;36992;48.200;12.418;2023-10-19T06:28:46;9.05;;;5.60;;
50976;SDS011;36992;48.200;12.418;2023-10-19T06:31:15;11.75;;;5.65;;
50976;SDS011;36992;48.200;12.418;2023-10-19T06:33:42;7.90;;;5.70;;
50976;SDS011;36992;48.200;12.418;2023-10-19T06:36:08;9.05;;;5.70;;
50976;SDS011;36992;48.200;12.418;2023-10-19T06:38:36;7.38;;;5.03;;
50976;SDS011;36992;48.200;12.418;2023-10-19T06:41:09;7.95;;;5.28;;
50976;SDS011;36992;48.200;12.418;2023-10-19T06:43:37;7.75;;;5.30;;
50976;SDS011;36992;48.200;12.418;2023-10-19T06:46:04;8.15;;;5.50;;
50976;SDS011;36992;48.200;12.418;2023-10-19T06:48:31;8.68;;;6.93;;
50976;SDS011;36992;48.200;12.418;2023-10-19T06:50:57;6.57;;;4.70;;
50976;SDS011;36992;48.200;12.418;2023-10-19T06:53:25;7.82;;;5.65;;
50976;SDS011;36992;48.200;12.418;2023-10-19T06:55:53;8.48;;;5.53;;
50976;SDS011;36992;48.200;12.418;2023-10-19T06:58:20;8.85;;;5.95;;
50976;SDS011;36992;48.200;12.418;2023-10-19T07:00:51;6.63;;;5.07;;
50976;SDS011;36992;48.200;12.418;2023-10-19T07:03:22;8.05;;;5.88;;
50976;SDS011;36992;48.200;12.418;2023-10-19T07:05:49;8.63;;;6.68;;
50976;SDS011;36992;48.200;12.418;2023-10-19T07:08:18;8.70;;;6.50;;
50976;SDS011;36992;48.200;12.418;2023-10-19T07:10:46;9.63;;;6.50;;
50976;SDS011;36992;48.200;12.418;2023-10-19T07:13:15;7.55;;;5.85;;
50976;SDS011;36992;48.200;12.418;2023-10-19T07:15:44;8.45;;;6.13;;
50976;SDS011;36992;48.200;12.418;2023-10-19T07:18:11;10.55;;;6.60;;
50976;SDS011;36992;48.200;12.418;2023-10-19T07:20:38;10.35;;;7.32;;
50976;SDS011;36992;48.200;12.418;2023-10-19T07:23:07;9.10;;;6.25;;
50976;SDS011;36992;48.200;12.418;2023-10-19T07:28:10;8.80;;;5.82;;
50976;SDS011;36992;48.200;12.418;2023-10-19T07:30:38;9.82;;;5.55;;
50976;SDS011;36992;48.200;12.418;2023-10-19T07:33:06;7.32;;;5.40;;
50976;SDS011;36992;48.200;12.418;2023-10-19T07:35:34;7.05;;;5.10;;
50976;SDS011;36992;48.200;12.418;2023-10-19T07:38:02;9.98;;;5.78;;
50976;SDS011;36992;48.200;12.418;2023-10-19T07:40:32;8.52;;;6.10;;
50976;SDS011;36992;48.200;12.418;2023-10-19T07:42:58;7.93;;;5.65;;
50976;SDS011;36992;48.200;12.418;2023-10-19T07:45:25;8.63;;;6.05;;
50976;SDS011;36992;48.200;12.418;2023-10-19T07:47:53;8.50;;;6.25;;
50976;SDS011;36992;48.200;12.418;2023-10-19T07:50:19;6.57;;;5.38;;
50976;SDS011;36992;48.200;12.418;2023-10-19T07:52:48;9.10;;;6.78;;
50976;SDS011;36992;48.200;12.418;2023-10-19T07:55:17;7.38;;;5.72;;
50976;SDS011;36992;48.200;12.418;2023-10-19T07:57:44;6.15;;;4.75;;
50976;SDS011;36992;48.200;12.418;2023-10-19T08:00:11;8.98;;;5.43;;
50976;SDS011;36992;48.200;12.418;2023-10-19T08:02:39;9.80;;;5.40;;
50976;SDS011;36992;48.200;12.418;2023-10-19T08:05:08;7.22;;;5.07;;
50976;SDS011;36992;48.200;12.418;2023-10-19T08:07:36;9.63;;;6.05;;
50976;SDS011;36992;48.200;12.418;2023-10-19T08:10:05;8.15;;;5.85;;
50976;SDS011;36992;48.200;12.418;2023-10-19T08:12:34;7.15;;;5.03;;
50976;SDS011;36992;48.200;12.418;2023-10-19T08:15:01;8.10;;;5.55;;
50976;SDS011;36992;48.200;12.418;2023-10-19T08:17:28;7.28;;;5.35;;
50976;SDS011;36992;48.200;12.418;2023-10-19T08:19:55;8.27;;;6.05;;
50976;SDS011;36992;48.200;12.418;2023-10-19T08:22:24;6.95;;;5.40;;
50976;SDS011;36992;48.200;12.418;2023-10-19T08:24:52;7.15;;;4.78;;
50976;SDS011;36992;48.200;12.418;2023-10-19T08:27:19;10.52;;;5.93;;
50976;SDS011;36992;48.200;12.418;2023-10-19T08:29:46;8.70;;;6.47;;
50976;SDS011;36992;48.200;12.418;2023-10-19T08:32:13;8.77;;;6.07;;
50976;SDS011;36992;48.200;12.418;2023-10-19T08:34:41;9.25;;;5.75;;
50976;SDS011;36992;48.200;12.418;2023-10-19T08:37:07;8.57;;;5.90;;
50976;SDS011;36992;48.200;12.418;2023-10-19T08:39:35;9.50;;;7.22;;
50976;SDS011;36992;48.200;12.418;2023-10-19T08:42:02;10.10;;;6.78;;
50976;SDS011;36992;48.200;12.418;2023-10-19T08:44:29;9.82;;;7.47;;
50976;SDS011;36992;48.200;12.418;2023-10-19T08:46:56;9.23;;;6.55;;
50976;SDS011;36992;48.200;12.418;2023-10-19T08:49:24;12.48;;;6.85;;
50976;SDS011;36992;48.200;12.418;2023-10-19T08:51:52;10.18;;;8.18;;
50976;SDS011;36992;48.200;12.418;2023-10-19T08:54:20;10.52;;;7.32;;
50976;SDS011;36992;48.200;12.418;2023-10-19T08:56:48;9.10;;;6.95;;
50976;SDS011;36992;48.200;12.418;2023-10-19T08:59:15;9.75;;;7.18;;
50976;SDS011;36992;48.200;12.418;2023-10-19T09:01:42;13.25;;;8.43;;
50976;SDS011;36992;48.200;12.418;2023-10-19T09:04:09;11.63;;;7.95;;
50976;SDS011;36992;48.200;12.418;2023-10-19T09:06:36;11.70;;;7.57;;
50976;SDS011;36992;48.200;12.418;2023-10-19T09:09:08;15.95;;;7.75;;
50976;SDS011;36992;48.200;12.418;2023-10-19T09:11:41;10.32;;;7.20;;
50976;SDS011;36992;48.200;12.418;2023-10-19T09:14:10;8.98;;;6.72;;
50976;SDS011;36992;48.200;12.418;2023-10-19T09:16:38;11.35;;;7.25;;
50976;SDS011;36992;48.200;12.418;2023-10-19T09:19:19;8.10;;;6.47;;
50976;SDS011;36992;48.200;12.418;2023-10-19T09:21:46;9.68;;;7.15;;
50976;SDS011;36992;48.200;12.418;2023-10-19T09:24:13;8.48;;;6.05;;
50976;SDS011;36992;48.200;12.418;2023-10-19T09:26:41;10.10;;;7.10;;
50976;SDS011;36992;48.200;12.418;2023-10-19T09:29:09;9.73;;;6.85;;
50976;SDS011;36992;48.200;12.418;2023-10-19T09:31:44;7.70;;;5.95;;
50976;SDS011;36992;48.200;12.418;2023-10-19T09:34:12;8.80;;;7.05;;
50976;SDS011;36992;48.200;12.418;2023-10-19T09:36:39;9.07;;;6.47;;
50976;SDS011;36992;48.200;12.418;2023-10-19T09:39:08;10.55;;;6.70;;
50976;SDS011;36992;48.200;12.418;2023-10-19T09:41:37;7.18;;;5.18;;
50976;SDS011;36992;48.200;12.418;2023-10-19T09:44:06;7.97;;;5.68;;
50976;SDS011;36992;48.200;12.418;2023-10-19T09:46:38;8.75;;;5.72;;
50976;SDS011;36992;48.200;12.418;2023-10-19T09:49:07;10.77;;;5.22;;
50976;SDS011;36992;48.200;12.418;2023-10-19T09:51:36;8.70;;;5.72;;
50976;SDS011;36992;48.200;12.418;2023-10-19T09:54:05;8.82;;;6.50;;
50976;SDS011;36992;48.200;12.418;2023-10-19T09:56:49;7.93;;;5.75;;
50976;SDS011;36992;48.200;12.418;2023-10-19T09:59:22;8.57;;;5.68;;
50976;SDS011;36992;48.200;12.418;2023-10-19T10:04:43;7.30;;;4.45;;
50976;SDS011;36992;48.200;12.418;2023-10-19T10:07:10;8.90;;;5.47;;
50976;SDS011;36992;48.200;12.418;2023-10-19T10:09:38;8.52;;;5.20;;
50976;SDS011;36992;48.200;12.418;2023-10-19T10:12:15;9.05;;;5.75;;
50976;SDS011;36992;48.200;12.418;2023-10-19T10:14:52;7.88;;;5.95;;
50976;SDS011;36992;48.200;12.418;2023-10-19T10:17:22;10.60;;;6.15;;
50976;SDS011;36992;48.200;12.418;2023-10-19T10:19:50;7.80;;;5.85;;
50976;SDS011;36992;48.200;12.418;2023-10-19T10:22:19;9.82;;;6.60;;
50976;SDS011;36992;48.200;12.418;2023-10-19T10:24:48;8.40;;;6.13;;
50976;SDS011;36992;48.200;12.418;2023-10-19T10:27:21;8.93;;;6.22;;
50976;SDS011;36992;48.200;12.418;2023-10-19T10:29:55;8.07;;;5.85;;
50976;SDS011;36992;48.200;12.418;2023-10-19T10:35:10;7.75;;;5.88;;
50976;SDS011;36992;48.200;12.418;2023-10-19T10:38:15;8.90;;;6.43;;
50976;SDS011;36992;48.200;12.418;2023-10-19T10:40:42;7.03;;;4.88;;
50976;SDS011;36992;48.200;12.418;2023-10-19T10:43:09;9.48;;;6.18;;
50976;SDS011;36992;48.200;12.418;2023-10-19T10:45:36;9.05;;;5.78;;
50976;SDS011;36992;48.200;12.418;2023-10-19T10:48:05;7.80;;;5.88;;
50976;SDS011;36992;48.200;12.418;2023-10-19T10:50:38;12.55;;;5.90;;
50976;SDS011;36992;48.200;12.418;2023-10-19T10:53:06;9.93;;;6.03;;
50976;SDS011;36992;48.200;12.418;2023-10-19T10:55:33;9.65;;;6.90;;
50976;SDS011;36992;48.200;12.418;2023-10-19T10:57:59;8.55;;;6.28;;
50976;SDS011;36992;48.200;12.418;2023-10-19T11:00:26;10.43;;;6.90;;
50976;SDS011;36992;48.200;12.418;2023-10-19T11:03:00;9.40;;;7.03;;
50976;SDS011;36992;48.200;12.418;2023-10-19T11:05:30;10.35;;;7.20;;
50976;SDS011;36992;48.200;12.418;2023-10-19T11:08:02;9.57;;;7.65;;
50976;SDS011;36992;48.200;12.418;2023-10-19T11:10:31;12.70;;;8.18;;
50976;SDS011;36992;48.200;12.418;2023-10-19T11:13:02;11.93;;;7.53;;
50976;SDS011;36992;48.200;12.418;2023-10-19T11:15:29;11.10;;;9.38;;
50976;SDS011;36992;48.200;12.418;2023-10-19T11:17:56;12.27;;;7.65;;
50976;SDS011;36992;48.200;12.418;2023-10-19T11:20:24;11.38;;;8.30;;
50976;SDS011;36992;48.200;12.418;2023-10-19T11:22:54;12.93;;;7.80;;
50976;SDS011;36992;48.200;12.418;2023-10-19T11:25:23;12.52;;;9.07;;
50976;SDS011;36992;48.200;12.418;2023-10-19T11:27:53;12.95;;;9.60;;
50976;SDS011;36992;48.200;12.418;2023-10-19T11:30:23;14.07;;;10.35;;
50976;SDS011;36992;48.200;12.418;2023-10-19T11:32:51;11.85;;;8.52;;
50976;SDS011;36992;48.200;12.418;2023-10-19T11:35:22;14.40;;;8.63;;
50976;SDS011;36992;48.200;12.418;2023-10-19T11:37:49;11.75;;;8.20;;
50976;SDS011;36992;48.200;12.418;2023-10-19T11:40:19;12.63;;;8.40;;
50976;SDS011;36992;48.200;12.418;2023-10-19T11:42:46;12.02;;;8.45;;
50976;SDS011;36992;48.200;12.418;2023-10-19T11:45:13;9.40;;;7.10;;
50976;SDS011;36992;48.200;12.418;2023-10-19T11:47:41;10.23;;;7.05;;
50976;SDS011;36992;48.200;12.418;2023-10-19T11:50:08;12.52;;;8.02;;
50976;SDS011;36992;48.200;12.418;2023-10-19T11:52:37;12.20;;;8.30;;
50976;SDS011;36992;48.200;12.418;2023-10-19T11:55:04;11.43;;;7.97;;
50976;SDS011;36992;48.200;12.418;2023-10-19T11:57:35;11.43;;;8.10;;
50976;SDS011;36992;48.200;12.418;2023-10-19T12:00:02;15.02;;;8.95;;
50976;SDS011;36992;48.200;12.418;2023-10-19T12:02:33;12.45;;;9.18;;
50976;SDS011;36992;48.200;12.418;2023-10-19T12:05:02;9.63;;;7.30;;
50976;SDS011;36992;48.200;12.418;2023-10-19T12:07:29;13.07;;;9.80;;
50976;SDS011;36992;48.200;12.418;2023-10-19T12:09:57;12.85;;;8.80;;
50976;SDS011;36992;48.200;12.418;2023-10-19T12:12:24;14.73;;;8.95;;
50976;SDS011;36992;48.200;12.418;2023-10-19T12:14:52;11.65;;;8.50;;
50976;SDS011;36992;48.200;12.418;2023-10-19T12:17:19;12.07;;;7.45;;
50976;SDS011;36992;48.200;12.418;2023-10-19T12:19:47;9.02;;;6.90;;
50976;SDS011;36992;48.200;12.418;2023-10-19T12:22:14;11.00;;;7.60;;
50976;SDS011;36992;48.200;12.418;2023-10-19T12:24:40;12.43;;;7.43;;
50976;SDS011;36992;48.200;12.418;2023-10-19T12:27:07;12.60;;;7.88;;
50976;SDS011;36992;48.200;12.418;2023-10-19T12:29:33;10.60;;;7.68;;
50976;SDS011;36992;48.200;12.418;2023-10-19T12:32:01;10.27;;;7.03;;
50976;SDS011;36992;48.200;12.418;2023-10-19T12:34:28;11.40;;;7.72;;
50976;SDS011;36992;48.200;12.418;2023-10-19T12:36:55;9.52;;;6.78;;
50976;SDS011;36992;48.200;12.418;2023-10-19T12:39:23;12.93;;;9.07;;
50976;SDS011;36992;48.200;12.418;2023-10-19T12:42:08;8.98;;;7.25;;
50976;SDS011;36992;48.200;12.418;2023-10-19T12:44:35;8.60;;;6.75;;
50976;SDS011;36992;48.200;12.418;2023-10-19T12:47:07;9.30;;;6.93;;
50976;SDS011;36992;48.200;12.418;2023-10-19T12:49:38;11.43;;;7.50;;
50976;SDS011;36992;48.200;12.418;2023-10-19T12:52:05;8.32;;;6.07;;
50976;SDS011;36992;48.200;12.418;2023-10-19T12:54:33;8.48;;;7.10;;
50976;SDS011;36992;48.200;12.418;2023-10-19T12:57:00;7.65;;;5.55;;
50976;SDS011;36992;48.200;12.418;2023-10-19T12:59:28;8.02;;;5.25;;
50976;SDS011;36992;48.200;12.418;2023-10-19T13:01:55;9.65;;;6.07;;
50976;SDS011;36992;48.200;12.418;2023-10-19T13:04:25;8.82;;;6.38;;
50976;SDS011;36992;48.200;12.418;2023-10-19T13:06:54;7.97;;;5.55;;
50976;SDS011;36992;48.200;12.418;2023-10-19T13:09:22;7.10;;;5.38;;
50976;SDS011;36992;48.200;12.418;2023-10-19T13:11:56;11.30;;;6.50;;
50976;SDS011;36992;48.200;12.418;2023-10-19T13:14:23;7.90;;;6.07;;
50976;SDS011;36992;48.200;12.418;2023-10-19T13:16:49;8.95;;;6.05;;
50976;SDS011;36992;48.200;12.418;2023-10-19T13:19:16;7.88;;;5.15;;
50976;SDS011;36992;48.200;12.418;2023-10-19T13:21:49;8.18;;;5.68;;
50976;SDS011;36992;48.200;12.418;2023-10-19T13:24:25;9.13;;;5.40;;
50976;SDS011;36992;48.200;12.418;2023-10-19T13:26:58;8.82;;;4.70;;
50976;SDS011;36992;48.200;12.418;2023-10-19T13:29:24;8.30;;;6.07;;
50976;SDS011;36992;48.200;12.418;2023-10-19T13:31:52;7.47;;;5.28;;
50976;SDS011;36992;48.200;12.418;2023-10-19T13:34:19;7.55;;;5.00;;
50976;SDS011;36992;48.200;12.418;2023-10-19T13:36:47;8.30;;;4.60;;
50976;SDS011;36992;48.200;12.418;2023-10-19T13:39:16;8.27;;;4.63;;
50976;SDS011;36992;48.200;12.418;2023-10-19T13:41:43;9.13;;;5.15;;
50976;SDS011;36992;48.200;12.418;2023-10-19T13:44:09;6.60;;;4.57;;
50976;SDS011;36992;48.200;12.418;2023-10-19T13:46:37;6.10;;;4.13;;
50976;SDS011;36992;48.200;12.418;2023-10-19T13:49:04;7.72;;;4.85;;
50976;SDS011;36992;48.200;12.418;2023-10-19T13:51:31;8.07;;;5.30;;
50976;SDS011;36992;48.200;12.418;2023-10-19T13:53:59;5.70;;;4.90;;
50976;SDS011;36992;48.200;12.418;2023-10-19T13:56:26;7.47;;;4.38;;
50976;SDS011;36992;48.200;12.418;2023-10-19T13:58:53;6.68;;;4.40;;
50976;SDS011;36992;48.200;12.418;2023-10-19T14:01:20;7.10;;;5.03;;
50976;SDS011;36992;48.200;12.418;2023-10-19T14:03:50;6.90;;;4.15;;
50976;SDS011;36992;48.200;12.418;2023-10-19T14:06:19;6.00;;;4.57;;
50976;SDS011;36992;48.200;12.418;2023-10-19T14:08:47;6.30;;;4.63;;
50976;SDS011;36992;48.200;12.418;2023-10-19T14:11:15;6.60;;;4.88;;
50976;SDS011;36992;48.200;12.418;2023-10-19T14:13:42;7.38;;;4.78;;
50976;SDS011;36992;48.200;12.418;2023-10-19T14:16:09;5.40;;;3.90;;
50976;SDS011;36992;48.200;12.418;2023-10-19T14:18:36;5.80;;;3.85;;
50976;SDS011;36992;48.200;12.418;2023-10-19T14:21:09;8.18;;;4.28;;
50976;SDS011;36992;48.200;12.418;2023-10-19T14:23:37;6.68;;;3.40;;
50976;SDS011;36992;48.200;12.418;2023-10-19T14:26:05;6.65;;;3.85;;
50976;SDS011;36992;48.200;12.418;2023-10-19T14:28:33;5.38;;;3.55;;
50976;SDS011;36992;48.200;12.418;2023-10-19T14:31:00;5.65;;;4.00;;
50976;SDS011;36992;48.200;12.418;2023-10-19T14:33:29;5.88;;;3.88;;
50976;SDS011;36992;48.200;12.418;2023-10-19T14:35:55;5.25;;;3.53;;
50976;SDS011;36992;48.200;12.418;2023-10-19T14:38:22;6.18;;;4.13;;
50976;SDS011;36992;48.200;12.418;2023-10-19T14:40:50;5.78;;;3.75;;
50976;SDS011;36992;48.200;12.418;2023-10-19T14:43:18;7.10;;;4.13;;
50976;SDS011;36992;48.200;12.418;2023-10-19T14:45:47;6.20;;;4.05;;
50976;SDS011;36992;48.200;12.418;2023-10-19T14:48:14;7.32;;;3.95;;
50976;SDS011;36992;48.200;12.418;2023-10-19T14:50:44;9.38;;;4.70;;